Time;durP1;ratioP1;P1;durP2;ratioP2;P2;SDS_P1;SDS_P2;PMS_P1;PMS_P2;Temp;Humidity;BMP_temperature;BMP_pressure;BME280_temperature;BME280_humidity;BME280_pressure;Samples;Min_cycle;Max_cycle;Signal;HPM_P1;HPM_P2
2023/05/09 00:00:45;;;;;;;15.58;7.67;;;;;;;5.67;45.34;100909.96;1674204;84;21101;-63
2023/05/09 00:03:13;;;;;;;16.25;8.33;;;;;;;5.69;44.96;100912.11;1675866;84;21064;-63
2023/05/09 00:05:40;;;;;;;11.50;7.97;;;;;;;5.59;45.02;100913.45;1671903;84;21112;-63
2023/05/09 00:08:07;;;;;;;16.55;8.50;;;;;;;5.40;45.13;100909.28;1670928;84;21135;-63
2023/05/09 00:10:34;;;;;;;14.55;8.43;;;;;;;5.30;45.57;100912.83;1675914;84;21056;-63
2023/05/09 00:13:00;;;;;;;17.25;9.48;;;;;;;5.21;45.88;100900.80;1669761;84;21076;-63
2023/05/09 00:15:27;;;;;;;16.23;9.40;;;;;;;5.16;46.19;100902.11;1668688;84;21059;-63
2023/05/09 00:17:55;;;;;;;15.70;9.08;;;;;;;5.11;46.38;100910.78;1667014;84;21047;-63
2023/05/09 00:20:22;;;;;;;19.10;8.03;;;;;;;5.02;46.34;100906.52;1673042;84;21051;-63
2023/05/09 00:22:48;;;;;;;17.07;8.13;;;;;;;4.93;46.70;100906.58;1672906;84;21691;-63
2023/05/09 00:25:15;;;;;;;15.93;7.95;;;;;;;4.87;46.34;100903.99;1673172;84;21052;-63
2023/05/09 00:27:44;;;;;;;17.90;7.25;;;;;;;4.81;46.15;100901.44;1673976;84;21134;-63
2023/05/09 00:30:11;;;;;;;10.90;6.60;;;;;;;4.82;46.18;100900.59;1667840;84;21064;-63
2023/05/09 00:32:39;;;;;;;12.73;8.10;;;;;;;4.91;46.41;100897.95;1672385;84;21025;-63
2023/05/09 00:35:07;;;;;;;12.28;7.97;;;;;;;5.00;46.24;100895.30;1671273;84;20969;-63
2023/05/09 00:37:33;;;;;;;14.90;8.03;;;;;;;5.04;46.36;100894.44;1673108;84;21036;-64
2023/05/09 00:39:59;;;;;;;13.65;7.58;;;;;;;5.01;46.34;100894.42;1663785;84;21087;-63
2023/05/09 00:42:25;;;;;;;14.15;7.50;;;;;;;4.99;46.51;100893.59;1678756;84;21002;-63
2023/05/09 00:44:52;;;;;;;9.05;6.37;;;;;;;4.98;46.65;100893.59;1670354;84;21647;-64
2023/05/09 00:47:18;;;;;;;11.68;7.00;;;;;;;4.92;46.50;100902.25;1676785;84;21057;-64
2023/05/09 00:49:44;;;;;;;13.18;7.85;;;;;;;4.85;46.85;100897.98;1678776;83;21055;-63
2023/05/09 00:52:10;;;;;;;12.40;7.83;;;;;;;4.82;46.85;100902.74;1678116;84;21048;-64
2023/05/09 00:54:37;;;;;;;9.88;6.92;;;;;;;4.79;46.90;100896.29;1675976;83;21044;-63
2023/05/09 00:57:03;;;;;;;16.32;8.03;;;;;;;4.75;46.97;100895.01;1683671;84;21084;-63
2023/05/09 00:59:30;;;;;;;16.65;8.78;;;;;;;4.67;47.04;100894.59;1676685;84;21064;-64
2023/05/09 01:01:56;;;;;;;17.15;8.43;;;;;;;4.58;47.12;100897.23;1679468;84;21008;-63
2023/05/09 01:04:22;;;;;;;14.53;7.20;;;;;;;4.50;47.36;100895.10;1674643;84;21065;-63
2023/05/09 01:07:02;;;;;;;16.25;8.53;;;;;;;4.43;47.35;100892.13;1670269;83;21626;-63
2023/05/09 01:09:44;;;;;;;;;;;;;;;4.42;47.54;100891.23;1676851;84;21010;-63
2023/05/09 01:12:14;;;;;;;10.00;6.75;;;;;;;4.43;48.03;100892.13;1674512;84;20180;-63
2023/05/09 01:15:01;;;;;;;12.30;7.28;;;;;;;4.47;47.70;100888.65;1670456;84;20954;-63
2023/05/09 01:17:36;;;;;;;13.38;7.97;;;;;;;4.49;47.64;100885.63;1668907;84;20989;-64
2023/05/09 01:20:09;;;;;;;13.70;8.00;;;;;;;4.48;47.79;100881.30;1677378;84;21009;-63
2023/05/09 01:22:38;;;;;;;13.45;7.60;;;;;;;4.45;47.74;100886.49;1658706;84;21510;-64
2023/05/09 01:25:34;;;;;;;9.38;7.10;;;;;;;4.44;47.78;100895.13;1647787;86;21514;-63
2023/05/09 01:28:04;;;;;;;12.07;7.03;;;;;;;4.43;47.92;100888.25;1643935;86;20984;-63
2023/05/09 01:30:32;;;;;;;10.43;7.10;;;;;;;4.44;47.99;100892.10;1644996;86;21165;-63
2023/05/09 01:33:01;;;;;;;12.65;8.08;;;;;;;4.37;48.04;100892.12;1643090;86;21039;-63
2023/05/09 01:35:30;;;;;;;13.35;7.25;;;;;;;4.30;48.19;100885.27;1645775;86;21031;-63
2023/05/09 01:37:58;;;;;;;15.90;7.00;;;;;;;4.25;48.43;100886.12;1648055;86;20948;-63
2023/05/09 01:40:28;;;;;;;13.28;6.60;;;;;;;4.23;48.38;100891.75;1646466;86;20985;-63
2023/05/09 01:43:01;;;;;;;11.55;7.65;;;;;;;4.22;48.53;100891.30;1646248;86;21027;-63
2023/05/09 01:45:29;;;;;;;13.20;8.25;;;;;;;4.25;48.67;100891.30;1643929;86;21100;-63
2023/05/09 01:47:57;;;;;;;14.53;7.60;;;;;;;4.28;48.69;100894.74;1645975;86;21708;-63
2023/05/09 01:50:25;;;;;;;14.68;8.75;;;;;;;4.32;48.61;100888.72;1643353;86;21075;-63
2023/05/09 01:52:55;;;;;;;15.60;8.93;;;;;;;4.34;48.72;100892.13;1647053;86;21155;-63
2023/05/09 01:55:26;;;;;;;15.38;7.95;;;;;;;4.35;48.77;100891.29;1644302;86;20988;-63
2023/05/09 01:57:55;;;;;;;15.88;7.83;;;;;;;4.37;48.95;100894.70;1650048;86;21046;-63
2023/05/09 02:00:23;;;;;;;20.10;8.00;;;;;;;4.38;48.99;100895.16;1647691;86;21051;-63
2023/05/09 02:02:51;;;;;;;14.75;7.75;;;;;;;4.38;49.04;100893.42;1647562;86;21051;-63
2023/05/09 02:05:18;;;;;;;10.80;7.10;;;;;;;4.32;49.10;100893.45;1645792;86;21019;-63
2023/05/09 02:07:46;;;;;;;11.60;7.73;;;;;;;4.30;49.22;100887.84;1644629;86;21023;-63
2023/05/09 02:10:14;;;;;;;13.38;6.95;;;;;;;4.25;49.25;100891.30;1641693;86;21122;-63
2023/05/09 02:12:40;;;;;;;12.60;7.95;;;;;;;4.26;49.31;100887.86;1652795;86;20964;-63
2023/05/09 02:15:08;;;;;;;18.82;10.25;;;;;;;4.32;49.42;100886.12;1640561;86;21027;-63
2023/05/09 02:17:34;;;;;;;13.10;6.90;;;;;;;4.31;49.33;100886.97;1647324;86;21058;-63
2023/05/09 02:20:00;;;;;;;8.53;6.12;;;;;;;4.33;49.38;100893.01;1645104;86;20980;-63
2023/05/09 02:22:27;;;;;;;17.37;6.42;;;;;;;4.28;49.41;100884.41;1648539;86;20988;-64
2023/05/09 02:24:53;;;;;;;47.00;7.67;;;;;;;4.19;49.60;100891.31;1673025;84;21080;-64
2023/05/09 02:27:21;;;;;;;11.70;6.40;;;;;;;4.15;49.59;100892.20;1676649;84;21762;-63
2023/05/09 02:29:48;;;;;;;;;;;;;;;4.13;49.58;100896.50;1677030;84;20984;-63
2023/05/09 02:32:24;;;;;;;9.53;6.75;;;;;;;4.03;49.96;100894.78;1675717;84;20217;-63
2023/05/09 02:34:52;;;;;;;9.28;5.70;;;;;;;3.96;49.93;100891.80;1676600;84;21511;-63
2023/05/09 02:37:19;;;;;;;12.13;6.53;;;;;;;3.88;49.89;100888.36;1675473;84;21039;-63
2023/05/09 02:39:46;;;;;;;10.63;6.55;;;;;;;3.78;49.98;100889.67;1674470;84;20989;-63
2023/05/09 02:42:15;;;;;;;10.98;6.03;;;;;;;3.76;50.25;100891.39;1673380;84;21032;-63
2023/05/09 02:44:41;;;;;;;8.75;5.62;;;;;;;3.70;50.28;100891.41;1679029;84;21037;-63
2023/05/09 02:47:07;;;;;;;11.93;7.17;;;;;;;3.62;50.18;100890.55;1674896;84;21056;-63
2023/05/09 02:49:34;;;;;;;11.63;6.78;;;;;;;3.58;50.22;100887.52;1681724;84;21638;-63
2023/05/09 02:52:00;;;;;;;12.00;7.07;;;;;;;3.55;50.30;100891.39;1676511;83;21084;-63
2023/05/09 02:54:34;;;;;;;10.05;7.37;;;;;;;3.54;50.38;100894.84;1675761;84;20993;-63
2023/05/09 02:56:58;;;;;;;11.95;7.53;;;;;;;3.55;50.46;100886.22;1674443;84;21027;-63
2023/05/09 02:59:26;;;;;;;20.30;7.62;;;;;;;3.58;50.65;100890.98;1676469;84;21040;-63
2023/05/09 03:01:52;;;;;;;15.60;7.60;;;;;;;3.60;50.81;100889.67;1676855;84;20988;-63
2023/05/09 03:04:18;;;;;;;17.05;7.83;;;;;;;3.54;50.75;100900.01;1678142;84;21784;-63
2023/05/09 03:06:45;;;;;;;15.90;8.15;;;;;;;3.48;50.77;100889.68;1669005;84;21552;-63
2023/05/09 03:09:11;;;;;;;15.50;8.00;;;;;;;3.47;50.88;100898.27;1677359;84;21017;-63
2023/05/09 03:11:37;;;;;;;11.30;7.45;;;;;;;3.47;51.12;100894.39;1677735;84;21009;-63
2023/05/09 03:14:04;;;;;;;13.50;8.15;;;;;;;3.45;51.56;100889.25;1675945;84;21037;-63
2023/05/09 03:16:30;;;;;;;12.75;7.25;;;;;;;3.42;51.26;100894.81;1675628;83;21043;-63
2023/05/09 03:18:56;;;;;;;13.62;7.35;;;;;;;3.38;51.57;100898.27;1676538;84;20970;-63
2023/05/09 03:21:23;;;;;;;17.17;7.33;;;;;;;3.38;51.68;100891.81;1673645;84;20965;-63
2023/05/09 03:23:49;;;;;;;13.55;7.33;;;;;;;3.41;51.55;100893.11;1669891;84;21603;-63
2023/05/09 03:26:15;;;;;;;19.07;8.13;;;;;;;3.47;51.57;100898.27;1673519;83;21028;-63
2023/05/09 03:28:45;;;;;;;10.80;7.20;;;;;;;3.53;51.79;100897.00;1671855;84;21381;-63
2023/05/09 03:31:11;;;;;;;11.68;7.20;;;;;;;3.58;51.92;100893.97;1678314;84;21012;-63
2023/05/09 03:33:37;;;;;;;10.15;7.35;;;;;;;3.60;52.10;100897.42;1672720;84;21043;-63
2023/05/09 03:36:04;;;;;;;10.35;7.28;;;;;;;3.62;52.20;100900.88;1674964;84;21068;-63
2023/05/09 03:38:30;;;;;;;11.80;7.05;;;;;;;3.67;52.03;100893.98;1672109;84;20997;-63
2023/05/09 03:40:56;;;;;;;32.93;10.95;;;;;;;3.73;52.02;100896.56;1674099;84;21505;-63
2023/05/09 03:43:23;;;;;;;30.62;9.63;;;;;;;3.83;52.08;100899.13;1672680;83;20961;-63
2023/05/09 03:45:49;;;;;;;20.52;8.15;;;;;;;3.92;52.28;100893.95;1674776;84;21103;-63
2023/05/09 03:48:15;;;;;;;19.50;8.00;;;;;;;4.01;52.19;100896.54;1674527;84;21124;-63
2023/05/09 03:50:42;;;;;;;17.60;7.83;;;;;;;4.06;52.24;100893.48;1673044;84;20993;-63
2023/05/09 03:53:08;;;;;;;10.98;7.45;;;;;;;4.14;52.37;100894.77;1674613;83;21049;-63
2023/05/09 03:55:34;;;;;;;11.80;7.33;;;;;;;4.21;52.42;100889.59;1671318;84;21099;-63
2023/05/09 03:58:01;;;;;;;13.13;7.05;;;;;;;4.29;52.48;100890.02;1670850;84;21496;-63
2023/05/09 04:00:27;;;;;;;22.22;7.40;;;;;;;4.41;52.51;100894.70;1672943;84;21473;-63
2023/05/09 04:02:53;;;;;;;27.35;7.90;;;;;;;4.52;52.63;100892.09;1675403;84;21036;-63
2023/05/09 04:05:20;;;;;;;14.00;6.85;;;;;;;4.65;52.65;100896.35;1668553;84;20966;-63
2023/05/09 04:07:47;;;;;;;22.60;7.53;;;;;;;4.78;52.63;100901.46;1669489;83;21028;-63
2023/05/09 04:10:13;;;;;;;14.70;6.85;;;;;;;4.96;52.94;100906.55;1672671;84;21029;-63
2023/05/09 04:12:39;;;;;;;12.03;8.10;;;;;;;5.14;52.81;100900.41;1673743;84;20969;-63
2023/05/09 04:15:08;;;;;;;12.95;7.58;;;;;;;5.29;52.88;100896.84;1674002;83;21028;-64
2023/05/09 04:17:34;;;;;;;12.70;7.10;;;;;;;5.42;53.09;100908.84;1672306;84;21606;-63
2023/05/09 04:20:01;;;;;;;18.95;8.45;;;;;;;5.56;53.04;100901.83;1671397;84;21040;-63
2023/05/09 04:22:27;;;;;;;18.12;7.05;;;;;;;5.76;53.28;100903.39;1676956;84;21049;-63
2023/05/09 04:24:54;;;;;;;27.80;8.33;;;;;;;5.93;53.22;100904.13;1671063;84;21378;-63
2023/05/09 04:27:20;;;;;;;15.93;7.17;;;;;;;6.08;53.17;100907.45;1672178;84;21473;-64
2023/05/09 04:29:48;;;;;;;44.45;9.45;;;;;;;6.22;53.06;100905.61;1674378;83;21036;-63
2023/05/09 04:32:14;;;;;;;;;;;;;;;6.41;53.31;100911.42;1675069;83;21033;-63
2023/05/09 04:34:41;;;;;;;29.03;7.43;;;;;;;6.56;53.61;100905.23;1673890;84;20132;-63
2023/05/09 04:37:07;;;;;;;11.28;7.10;;;;;;;6.72;53.40;100905.43;1673712;83;21021;-63
2023/05/09 04:39:34;;;;;;;26.52;8.95;;;;;;;6.91;53.53;100908.21;1678163;84;21104;-63
2023/05/09 04:42:03;;;;;;;15.95;8.85;;;;;;;7.11;53.56;100896.70;1673637;84;21547;-63
2023/05/09 04:44:31;;;;;;;20.12;9.30;;;;;;;7.29;53.54;100896.44;1673588;84;21043;-63
2023/05/09 04:46:57;;;;;;;18.42;9.30;;;;;;;7.45;53.61;100906.58;1669275;84;21094;-63
2023/05/09 04:49:23;;;;;;;20.00;9.05;;;;;;;7.64;53.54;100900.22;1667718;84;20992;-63
2023/05/09 04:51:53;;;;;;;19.87;10.00;;;;;;;7.84;53.71;100898.16;1671465;84;21118;-63
2023/05/09 04:54:19;;;;;;;17.07;9.03;;;;;;;8.02;53.56;100905.22;1676323;84;21040;-63
2023/05/09 04:56:45;;;;;;;24.35;9.53;;;;;;;8.21;53.43;100900.09;1672595;84;21060;-63
2023/05/09 04:59:13;;;;;;;19.45;9.38;;;;;;;8.44;53.62;100904.03;1673919;84;21034;-63
2023/05/09 05:01:44;;;;;;;16.48;9.53;;;;;;;8.72;53.63;100909.09;1673834;84;21009;-62
2023/05/09 05:04:08;;;;;;;13.55;8.38;;;;;;;8.98;53.73;100908.98;1672485;84;22301;-61
2023/05/09 05:06:35;;;;;;;;;;;;;;;9.26;53.85;100908.37;1672448;84;21033;-61
2023/05/09 05:09:03;;;;;;;11.00;6.58;;;;;;;9.49;53.64;100903.46;1669581;84;20270;-61
2023/05/09 05:11:30;;;;;;;14.98;6.25;;;;;;;9.76;53.28;100900.64;1668581;84;21029;-61
2023/05/09 05:13:57;;;;;;;15.38;6.03;;;;;;;10.01;53.23;100903.48;1671674;84;21060;-61
2023/05/09 05:16:23;;;;;;;12.45;4.80;;;;;;;10.29;53.15;100904.08;1673628;84;21060;-61
2023/05/09 05:18:49;;;;;;;10.23;5.30;;;;;;;10.56;53.03;100901.59;1672012;84;21053;-61
2023/05/09 05:21:19;;;;;;;7.42;4.50;;;;;;;10.77;52.73;100894.45;1651237;84;21069;-61
2023/05/09 05:23:45;;;;;;;9.25;4.53;;;;;;;10.95;52.65;100897.84;1668032;84;20969;-61
2023/05/09 05:26:12;;;;;;;10.68;4.17;;;;;;;11.14;52.54;100888.11;1672736;84;21024;-61
2023/05/09 05:28:38;;;;;;;8.78;4.62;;;;;;;11.34;52.42;100887.05;1679531;83;21119;-61
2023/05/09 05:31:05;;;;;;;7.87;4.37;;;;;;;11.50;52.31;100887.85;1667019;83;20997;-61
2023/05/09 05:33:31;;;;;;;6.45;3.62;;;;;;;11.65;52.06;100870.36;1671539;84;21084;-61
2023/05/09 05:35:59;;;;;;;7.00;4.00;;;;;;;11.90;52.00;100885.25;1655209;84;21021;-61
2023/05/09 05:38:26;;;;;;;8.45;4.17;;;;;;;12.09;51.91;100887.63;1671917;84;21536;-62
2023/05/09 05:40:52;;;;;;;10.55;3.83;;;;;;;12.26;51.85;100889.19;1673926;84;21032;-61
2023/05/09 05:43:18;;;;;;;7.12;4.05;;;;;;;12.48;51.62;100885.81;1669025;84;21028;-61
2023/05/09 05:45:44;;;;;;;7.25;3.92;;;;;;;12.67;51.43;100886.84;1673486;84;21048;-61
2023/05/09 05:48:11;;;;;;;5.22;3.45;;;;;;;12.91;51.17;100884.19;1675977;84;21545;-61
2023/05/09 05:50:37;;;;;;;10.58;3.27;;;;;;;13.27;50.85;100881.08;1671256;83;21028;-61
2023/05/09 05:53:03;;;;;;;8.58;4.00;;;;;;;13.35;50.80;100882.94;1669726;84;20953;-62
2023/05/09 05:55:29;;;;;;;14.83;5.58;;;;;;;13.43;50.21;100876.92;1678677;84;21063;-61
2023/05/09 05:57:56;;;;;;;10.88;3.87;;;;;;;13.53;50.13;100870.40;1670909;83;21029;-61
2023/05/09 06:00:22;;;;;;;5.37;3.20;;;;;;;13.63;49.98;100869.08;1666178;84;22337;-62
2023/05/09 06:02:49;;;;;;;5.62;3.47;;;;;;;13.78;48.71;100877.23;1674237;84;21026;-61
2023/05/09 06:05:16;;;;;;;4.83;2.70;;;;;;;13.89;48.31;100872.38;1670560;84;21009;-61
2023/05/09 06:07:43;;;;;;;6.87;3.53;;;;;;;13.99;48.86;100865.82;1674598;84;21583;-61
2023/05/09 06:10:11;;;;;;;6.08;3.05;;;;;;;14.14;48.87;100867.38;1653166;84;21033;-61
2023/05/09 06:12:38;;;;;;;4.53;2.55;;;;;;;14.29;48.51;100865.41;1671671;84;20989;-61
2023/05/09 06:15:07;;;;;;;7.45;2.92;;;;;;;14.39;48.43;100865.37;1678686;83;21022;-61
2023/05/09 06:17:33;;;;;;;3.50;2.85;;;;;;;14.55;48.36;100862.48;1681358;84;21091;-60
2023/05/09 06:20:00;;;;;;;5.53;2.90;;;;;;;14.68;47.57;100856.67;1673451;84;21057;-62
2023/05/09 06:22:29;;;;;;;4.80;2.50;;;;;;;14.83;47.34;100860.36;1671070;84;21017;-63
2023/05/09 06:24:55;;;;;;;3.60;2.40;;;;;;;14.93;47.24;100859.02;1673529;84;21445;-61
2023/05/09 06:27:22;;;;;;;3.55;2.50;;;;;;;15.05;47.34;100853.63;1675654;84;21543;-64
2023/05/09 06:29:51;;;;;;;5.72;2.80;;;;;;;15.26;47.33;100854.36;1669563;84;21362;-61
2023/05/09 06:32:18;;;;;;;3.77;2.87;;;;;;;15.45;46.87;100849.43;1670127;84;21052;-61
2023/05/09 06:34:45;;;;;;;8.05;6.65;;;;;;;15.72;46.56;100854.28;1674816;83;21049;-60
2023/05/09 06:37:11;;;;;;;6.12;2.72;;;;;;;16.02;46.85;100850.99;1667543;84;21063;-62
2023/05/09 06:39:40;;;;;;;4.20;2.70;;;;;;;16.30;46.27;100843.36;1671019;84;21088;-61
2023/05/09 06:42:07;;;;;;;9.98;2.45;;;;;;;16.51;46.04;100847.09;1672102;84;20989;-61
2023/05/09 06:44:33;;;;;;;139.90;125.53;;;;;;;16.85;46.29;100839.52;1672046;84;20999;-61
2023/05/09 06:47:01;;;;;;;6.97;5.77;;;;;;;17.40;45.98;100843.47;1673158;84;21076;-61
2023/05/09 06:49:27;;;;;;;9.30;5.80;;;;;;;17.87;42.70;100849.95;1680841;83;21672;-63
2023/05/09 06:51:54;;;;;;;11.20;9.98;;;;;;;18.34;43.70;100845.34;1670335;84;21017;-62
2023/05/09 06:54:20;;;;;;;9.40;4.83;;;;;;;18.67;39.33;100845.52;1665550;84;21020;-62
2023/05/09 06:56:47;;;;;;;6.03;3.20;;;;;;;18.99;42.64;100835.09;1665824;84;21016;-62
2023/05/09 06:59:15;;;;;;;5.12;4.05;;;;;;;19.42;43.31;100829.61;1679864;84;21147;-61
2023/05/09 07:01:41;;;;;;;6.42;2.98;;;;;;;19.97;41.68;100828.16;1671410;84;20970;-61
2023/05/09 07:04:08;;;;;;;4.35;2.90;;;;;;;20.62;43.02;100825.38;1670637;84;20958;-61
2023/05/09 07:06:35;;;;;;;12.47;4.00;;;;;;;21.20;41.34;100821.13;1666119;84;32214;-61
2023/05/09 07:09:03;;;;;;;4.20;2.65;;;;;;;21.65;39.70;100819.98;1670848;84;21088;-61
2023/05/09 07:11:34;;;;;;;5.37;4.05;;;;;;;22.09;40.14;100811.68;1672345;84;21112;-61
2023/05/09 07:14:02;;;;;;;4.42;2.87;;;;;;;22.53;39.95;100812.67;1675370;84;21152;-62
2023/05/09 07:16:28;;;;;;;9.40;3.40;;;;;;;22.96;39.49;100811.88;1670278;84;21073;-62
2023/05/09 07:18:55;;;;;;;6.40;2.60;;;;;;;23.21;37.05;100807.19;1670256;83;21087;-62
2023/05/09 07:21:21;;;;;;;5.67;3.05;;;;;;;23.85;38.20;100799.10;1672100;84;21010;-61
2023/05/09 07:23:47;;;;;;;6.92;2.80;;;;;;;24.62;37.04;100803.11;1673384;84;21487;-62
2023/05/09 07:26:14;;;;;;;9.08;3.98;;;;;;;25.59;36.01;100799.13;1672863;84;21416;-62
2023/05/09 07:28:41;;;;;;;7.58;3.05;;;;;;;26.67;32.71;100800.97;1673626;84;21000;-61
2023/05/09 07:31:08;;;;;;;6.85;3.35;;;;;;;26.95;28.25;100799.91;1669237;84;20985;-62
2023/05/09 07:33:34;;;;;;;18.85;12.88;;;;;;;27.07;25.39;100797.00;1676436;83;21112;-63
2023/05/09 07:36:00;;;;;;;;;;;;;;;27.06;28.71;100795.33;1672117;84;21533;-63
2023/05/09 07:38:26;;;;;;;;;;;;;;;27.50;27.54;100785.98;1675548;84;20132;-63
2023/05/09 07:40:53;;;;;;;14.83;3.00;;;;;;;27.52;23.64;100781.31;1667345;84;20493;-64
2023/05/09 07:43:19;;;;;;;16.73;5.17;;;;;;;27.52;23.64;100781.31;1666676;84;21566;-64
2023/05/09 07:45:45;;;;;;;6.50;3.25;;;;;;;26.89;24.22;100788.47;1671967;84;20989;-64
2023/05/09 07:48:12;;;;;;;4.72;3.02;;;;;;;27.44;28.61;100784.27;1672919;84;21025;-63
2023/05/09 07:50:39;;;;;;;3.85;2.87;;;;;;;28.42;28.30;100769.72;1678086;84;21132;-64
2023/05/09 07:53:05;;;;;;;27.42;19.37;;;;;;;29.45;25.86;100772.91;1679340;84;21053;-64
2023/05/09 07:55:32;;;;;;;5.42;3.33;;;;;;;29.61;24.44;100767.52;1674068;84;21064;-64
2023/05/09 07:57:58;;;;;;;;;;;;;;;29.51;25.19;100774.92;1677704;84;21060;-64
2023/05/09 08:00:24;;;;;;;5.03;3.20;;;;;;;29.94;24.67;100758.53;1676422;84;20219;-64
2023/05/09 08:02:51;;;;;;;8.60;3.98;;;;;;;30.50;25.19;100768.26;1676150;84;20978;-63
2023/05/09 08:05:18;;;;;;;10.70;6.22;;;;;;;31.07;24.25;100760.82;1676881;83;21062;-63
2023/05/09 08:07:45;;;;;;;5.65;3.33;;;;;;;31.85;25.91;100760.41;1672076;84;21079;-63
2023/05/09 08:10:12;;;;;;;9.23;2.85;;;;;;;33.02;25.80;100754.12;1677487;83;21104;-64
2023/05/09 08:12:38;;;;;;;9.08;3.72;;;;;;;33.64;24.08;100750.69;1676559;84;21505;-64
2023/05/09 08:15:06;;;;;;;3.52;2.50;;;;;;;33.72;17.83;100752.91;1669567;84;21021;-64
2023/05/09 08:17:32;;;;;;;5.72;2.90;;;;;;;33.04;21.66;100754.77;1668290;84;21108;-64
2023/05/09 08:19:59;;;;;;;11.03;2.90;;;;;;;32.39;18.37;100746.26;1674617;84;21040;-64
2023/05/09 08:22:25;;;;;;;6.50;3.20;;;;;;;31.71;19.67;100747.75;1675037;84;21043;-63
2023/05/09 08:24:52;;;;;;;10.38;6.28;;;;;;;31.33;19.01;100739.66;1672036;83;21048;-64
2023/05/09 08:27:18;;;;;;;5.45;3.08;;;;;;;30.74;18.55;100728.16;1641825;86;21358;-64
2023/05/09 08:29:45;;;;;;;9.48;3.10;;;;;;;30.86;17.47;100744.78;1641021;86;21110;-63
2023/05/09 08:32:11;;;;;;;4.85;3.30;;;;;;;30.72;18.96;100733.40;1646158;86;21027;-63
2023/05/09 08:34:41;;;;;;;6.95;2.85;;;;;;;31.41;20.22;100728.82;1646345;85;20999;-64
2023/05/09 08:37:08;;;;;;;4.33;3.17;;;;;;;32.05;17.11;100739.09;1638910;86;21083;-64
2023/05/09 08:39:34;;;;;;;5.05;2.60;;;;;;;30.90;18.42;100733.14;1642530;86;21030;-63
2023/05/09 08:42:02;;;;;;;8.15;2.87;;;;;;;31.20;18.03;100725.95;1645268;86;21098;-63
2023/05/09 08:44:30;;;;;;;11.20;3.00;;;;;;;31.35;17.43;100713.34;1643672;86;21107;-64
2023/05/09 08:46:59;;;;;;;9.23;3.30;;;;;;;31.34;17.72;100714.38;1643783;85;21558;-64
2023/05/09 08:49:26;;;;;;;18.87;3.47;;;;;;;31.18;16.63;100710.48;1640995;86;21093;-64
2023/05/09 08:51:54;;;;;;;4.60;2.85;;;;;;;30.89;15.14;100718.83;1644231;86;20948;-62
2023/05/09 08:54:21;;;;;;;5.83;3.27;;;;;;;30.60;17.10;100718.67;1643223;86;21039;-61
2023/05/09 08:56:49;;;;;;;6.97;2.85;;;;;;;30.61;16.98;100704.16;1643500;86;21665;-61
2023/05/09 08:59:16;;;;;;;5.50;3.05;;;;;;;30.89;17.09;100702.66;1641281;86;21012;-61
2023/05/09 09:01:43;;;;;;;9.60;3.62;;;;;;;31.04;16.64;100700.50;1641215;86;21484;-61
2023/05/09 09:04:12;;;;;;;6.92;2.30;;;;;;;31.33;16.85;100699.19;1638045;86;21606;-61
2023/05/09 09:06:39;;;;;;;4.90;2.72;;;;;;;32.21;17.23;100702.93;1643109;86;21078;-61
2023/05/09 09:09:08;;;;;;;11.18;2.80;;;;;;;32.65;15.68;100701.95;1641244;86;21027;-60
2023/05/09 09:11:35;;;;;;;6.20;3.42;;;;;;;32.75;14.52;100715.99;1644949;86;21019;-61
2023/05/09 09:14:14;;;;;;;10.38;2.90;;;;;;;32.50;15.88;100714.70;1645370;86;21055;-62
2023/05/09 09:16:43;;;;;;;8.75;3.10;;;;;;;32.17;14.68;100707.02;1645014;85;21047;-61
2023/05/09 09:19:12;;;;;;;13.00;2.98;;;;;;;30.82;14.95;100707.08;1639990;85;21542;-63
2023/05/09 09:21:42;;;;;;;4.28;3.00;;;;;;;30.62;15.86;100701.30;1644296;86;21000;-64
2023/05/09 09:24:11;;;;;;;5.95;3.17;;;;;;;30.93;15.49;100690.47;1638845;86;21685;-63
2023/05/09 09:26:45;;;;;;;5.05;2.85;;;;;;;31.44;15.10;100700.63;1660683;84;21052;-64
2023/05/09 09:29:11;;;;;;;12.43;2.92;;;;;;;31.58;15.39;100688.16;1670087;84;21088;-63
2023/05/09 09:31:37;;;;;;;10.50;3.10;;;;;;;31.42;15.21;100686.47;1678504;84;21076;-61
2023/05/09 09:34:04;;;;;;;6.50;3.17;;;;;;;31.24;15.38;100699.47;1677307;84;21024;-61
2023/05/09 09:36:34;;;;;;;18.92;3.15;;;;;;;30.97;15.73;100692.28;1673748;84;22298;-62
2023/05/09 09:39:05;;;;;;;5.20;2.85;;;;;;;31.21;15.51;100689.88;1675251;84;21040;-61
2023/05/09 09:41:34;;;;;;;6.08;2.35;;;;;;;31.75;15.92;100686.94;1672498;84;21063;-62
2023/05/09 09:44:11;;;;;;;11.90;3.02;;;;;;;32.48;15.18;100674.86;1667678;83;21578;-63
2023/05/09 09:46:45;;;;;;;4.95;2.67;;;;;;;32.46;14.74;100672.36;1621094;87;21527;-60
2023/05/09 09:49:17;;;;;;;10.72;2.72;;;;;;;31.99;14.45;100674.20;1668634;84;21016;-60
2023/05/09 09:51:44;;;;;;;11.25;3.20;;;;;;;31.85;14.43;100682.09;1671363;84;21676;-60
2023/05/09 09:54:12;;;;;;;9.40;3.85;;;;;;;32.01;14.20;100669.42;1677426;84;21522;-63
2023/05/09 09:56:47;;;;;;;7.08;2.98;;;;;;;32.46;14.83;100670.15;1660344;84;20978;-65
2023/05/09 09:59:16;;;;;;;6.67;2.80;;;;;;;31.81;13.82;100672.69;1672004;83;21040;-63
2023/05/09 10:02:01;;;;;;;7.53;2.70;;;;;;;31.03;14.69;100666.44;1674206;84;21582;-62
2023/05/09 10:04:30;;;;;;;8.53;3.10;;;;;;;31.27;14.93;100645.97;1672510;84;21080;-62
2023/05/09 10:07:06;;;;;;;3.60;2.70;;;;;;;30.87;14.08;100663.41;1672061;84;21448;-63
2023/05/09 10:09:29;;;;;;;5.03;2.70;;;;;;;30.94;14.81;100667.86;1675551;84;21036;-64
2023/05/09 10:11:58;;;;;;;3.02;2.30;;;;;;;31.44;14.29;100653.41;1678498;83;21055;-63
2023/05/09 10:14:25;;;;;;;9.10;2.95;;;;;;;31.95;14.89;100640.48;1666420;84;21958;-63
2023/05/09 10:16:55;;;;;;;10.15;2.77;;;;;;;32.58;14.18;100657.81;1673246;84;20970;-62
2023/05/09 10:19:23;;;;;;;7.72;3.02;;;;;;;32.30;13.62;100666.66;1671856;84;21130;-63
2023/05/09 10:22:05;;;;;;;8.30;3.02;;;;;;;32.31;14.23;100638.59;1669614;84;21079;-63
2023/05/09 10:24:43;;;;;;;5.95;2.90;;;;;;;32.91;14.69;100631.54;1675507;84;21032;-63
2023/05/09 10:27:11;;;;;;;4.85;2.92;;;;;;;33.57;13.75;100623.06;1670563;84;21617;-61
2023/05/09 10:29:42;;;;;;;10.25;2.60;;;;;;;34.07;14.33;100629.94;1676503;84;20954;-60
2023/05/09 10:32:28;;;;;;;6.72;2.65;;;;;;;34.28;14.43;100614.05;1675338;84;21112;-60
2023/05/09 10:34:59;;;;;;;4.87;2.92;;;;;;;34.85;14.20;100609.07;1681200;84;21051;-61
2023/05/09 10:37:27;;;;;;;20.10;3.52;;;;;;;34.20;13.56;100618.80;1672384;84;21047;-62
2023/05/09 10:39:55;;;;;;;6.22;2.75;;;;;;;32.58;13.75;100625.89;1672423;83;20962;-61
2023/05/09 10:42:24;;;;;;;5.42;3.00;;;;;;;32.36;13.90;100609.64;1673568;84;20981;-61
2023/05/09 10:44:53;;;;;;;13.72;2.95;;;;;;;32.50;13.69;100609.28;1673930;84;21097;-61
2023/05/09 10:47:21;;;;;;;5.60;2.58;;;;;;;32.37;13.83;100614.53;1667500;84;21514;-61
2023/05/09 10:49:49;;;;;;;11.33;2.95;;;;;;;32.07;13.77;100601.16;1673346;84;21067;-62
2023/05/09 10:52:17;;;;;;;6.60;2.55;;;;;;;32.19;13.74;100607.72;1650071;84;20989;-61
2023/05/09 10:54:44;;;;;;;21.73;3.35;;;;;;;32.11;13.65;100607.84;1671655;84;21044;-61
2023/05/09 10:57:10;;;;;;;9.20;2.62;;;;;;;31.08;14.08;100600.66;1668738;84;21068;-60
2023/05/09 10:59:44;;;;;;;7.62;2.50;;;;;;;30.39;14.11;100590.83;1672704;84;21507;-60
2023/05/09 11:02:15;;;;;;;7.62;2.55;;;;;;;30.24;15.14;100603.39;1674616;84;21083;-60
2023/05/09 11:04:43;;;;;;;10.18;3.10;;;;;;;30.54;14.70;100593.05;1669985;84;21582;-60
2023/05/09 11:07:25;;;;;;;9.08;3.22;;;;;;;31.43;14.86;100583.76;1665694;84;21051;-60
2023/05/09 11:09:53;;;;;;;7.40;2.62;;;;;;;31.69;14.20;100574.31;1671820;84;20980;-61
2023/05/09 11:12:23;;;;;;;10.00;2.80;;;;;;;32.13;14.05;100592.28;1669008;84;21123;-64
2023/05/09 11:14:52;;;;;;;21.37;3.87;;;;;;;30.90;14.21;100569.50;1674247;83;21032;-63
2023/05/09 11:17:27;;;;;;;9.73;2.52;;;;;;;30.32;14.86;100585.83;1672295;84;21036;-63
2023/05/09 11:20:05;;;;;;;13.95;3.05;;;;;;;29.95;14.79;100572.59;1665918;84;21020;-64
2023/05/09 11:22:43;;;;;;;4.37;2.60;;;;;;;29.37;14.96;100568.48;1674682;84;21800;-63
2023/05/09 11:25:13;;;;;;;33.23;3.70;;;;;;;29.61;15.12;100554.09;1669912;84;21534;-64
2023/05/09 11:27:49;;;;;;;14.30;3.35;;;;;;;29.94;15.17;100570.06;1658095;84;21110;-69
2023/05/09 11:30:19;;;;;;;11.60;2.67;;;;;;;28.96;15.15;100559.16;1635985;85;21237;-65